x

Lake Of The Woods (45148) Weather Station

9:00am - Tue 23rd Sep 2014 All times are UTC.

  • Wind
    4mph, 7mph gusts
  • Sea Temp 60°f
  • Air Temp 60°f
  • Sea Pressure 1018.8mb

More Historic Weather Station data

Upgrade to MSW Pro to gain access to the past 30 days of data for over 8000 Wavebouys and Weather Stations around the globe.

Join Pro

Comparision Forecast

View Surf forecast
   
Tue 09/23 9:00am 4 7 mph 1018.8mb 60f 60f
8:00am 2 4 mph 1018.8mb 60f 60f
7:00am 4 7 mph 1018.8mb 60f 61f
6:00am 7
mph
1018.5mb 60f 62f
5:00am 7
mph
1018.5mb 60f 61f
4:00am 7 9 mph 1018.4mb 60f 62f
3:00am 4 7 mph 1018.2mb 60f 62f
2:00am 2
mph
1017.9mb 60f 61f
1:00am 2 4 mph 1017.4mb 61f 63f
12:00am 7
mph
1017mb 61f 66f
Mon 09/22 11:00pm 7
mph
1016.8mb 61f 68f
10:00pm 7 9 mph 1016.7mb 61f 70f
9:00pm 9 11 mph 1016.8mb 61f 71f
8:00pm 7 9 mph 1017.2mb 61f 69f
7:00pm 9 11 mph 1017.5mb 61f 67f
6:00pm 9 13 mph 1017.7mb 60f 66f
5:00pm 9 11 mph 1018.4mb 60f 63f
4:00pm 9 11 mph 1018.5mb 60f 61f
3:00pm 11 16 mph 1018.6mb 60f 59f
2:00pm 9 11 mph 1019.2mb 60f 56f
1:00pm 13 16 mph 1019.4mb 60f 54f
12:00pm 13 16 mph 1019.5mb 60f 53f
11:00am 11 13 mph 1019.5mb 60f 54f
10:00am 13 16 mph 1019.5mb 60f 55f
9:00am 13 18 mph 1019.4mb 60f 55f
8:00am 13 16 mph 1019.7mb 60f 55f
7:00am 11 16 mph 1020.1mb 60f 54f
6:00am 11 13 mph 1020.4mb 60f 55f
5:00am 11 16 mph 1020.5mb 60f 55f
4:00am 9 11 mph 1021mb 60f 56f
3:00am 11 13 mph 1021.2mb 60f 56f
2:00am 9
mph
1021.4mb 60f 58f
1:00am 4 7 mph 1021.7mb 60f 58f
12:00am 4 7 mph 1021.6mb 60f 58f
Sun 09/21 11:00pm 9 11 mph 1021.6mb 60f 59f
10:00pm 7 9 mph 1021.8mb 60f 59f
9:00pm 7 9 mph 1021.7mb 60f 58f
8:00pm 9 11 mph 1021.7mb 60f 58f
7:00pm 13 16 mph 1022.2mb 60f 57f
6:00pm 7 9 mph 1022.4mb 61f 56f
5:00pm 4
mph
1022.7mb 60f 55f
4:00pm 4 9 mph 1022.5mb 60f 53f
3:00pm  -  2 mph 1022.2mb 60f 53f
2:00pm 4
mph
1021.1mb 60f 52f
1:00pm 7 9 mph 1020mb 60f 51f
12:00pm 9 11 mph 1019.3mb 60f 51f
11:00am 9
mph
1018mb 60f 52f
10:00am 9 11 mph 1017.3mb 60f 52f
9:00am 9 11 mph 1016.2mb 60f 52f
8:00am 9 11 mph 1015.4mb 60f 52f
7:00am 9 11 mph 1015mb 60f 52f
6:00am 11 13 mph 1014.1mb 60f 52f
5:00am 9 11 mph 1013.4mb 60f 51f
4:00am 11 13 mph 1012.9mb 60f 51f
3:00am 11 13 mph 1012.4mb 60f 51f
2:00am 13 18 mph 1011.5mb 60f 52f
1:00am 13 16 mph 1010.8mb 60f 53f
12:00am 13 18 mph 1009.8mb 60f 55f
Sat 09/20 11:00pm 9 11 mph 1009mb 60f 56f
10:00pm 7 9 mph 1007.8mb 61f 57f
9:00pm 2 4 mph 1007mb 61f 56f
8:00pm 4 7 mph 1007mb 61f 56f
7:00pm 4 7 mph 1007mb 61f 56f
6:00pm 4
mph
1006.8mb 60f 55f
5:00pm 7 9 mph 1007.3mb 60f 55f
4:00pm 7 9 mph 1007.7mb 60f 54f
3:00pm 9 13 mph 1007.6mb 60f 53f
2:00pm 13 20 mph 1007.2mb 60f 53f
1:00pm 11 13 mph 1006.8mb 60f 53f
12:00pm 11 13 mph 1006.4mb 60f 54f
11:00am 11 13 mph 1005.9mb 60f 54f
10:00am 13 20 mph 1005.4mb 60f 54f
9:00am 11 13 mph 1004.8mb 60f 54f
8:00am 18 22 mph 1004.3mb 60f 54f
7:00am 11 13 mph 1003.6mb 60f 56f
6:00am 11 13 mph 1003.2mb 60f 57f
5:00am 16 20 mph 1002.5mb 60f 58f
4:00am 13 18 mph 1001.8mb 60f 61f
3:00am 11
mph
1001.1mb 60f 62f
2:00am  -  4 mph 1001.3mb 60f 61f
1:00am 2
mph
1000.8mb 60f 61f
12:00am 2 4 mph 1000.3mb 60f 61f
Fri 09/19 11:00pm 4 7 mph 1000mb 60f 61f
10:00pm 9 11 mph 1000mb 60f 62f
9:00pm 7 9 mph 999.6mb 60f 62f
8:00pm 9 11 mph 999.4mb 60f 62f
7:00pm 13 18 mph 998.8mb 60f 62f
6:00pm 13 18 mph 999.7mb 60f 62f
5:00pm 13 18 mph 1000.3mb 60f 62f
4:00pm 13 18 mph 999.9mb 60f 62f
3:00pm 16 20 mph 999.7mb 60f 62f
2:00pm 11 18 mph 1000.4mb 60f 62f
1:00pm 16 20 mph 1000.5mb 60f 62f
12:00pm 13 20 mph 1001.6mb 60f 61f
11:00am 20 27 mph 1001.4mb 60f 62f